sensor_id;sensor_type;location;lat;lon;timestamp;temperature;humidity
10433;DHT22;5263;48.680;9.004;2022-10-10T00:00:43;11.70;99.90
10433;DHT22;5263;48.680;9.004;2022-10-10T00:03:09;11.70;99.90
10433;DHT22;5263;48.680;9.004;2022-10-10T00:05:38;11.70;99.90
10433;DHT22;5263;48.680;9.004;2022-10-10T00:08:05;11.90;99.90
10433;DHT22;5263;48.680;9.004;2022-10-10T00:10:31;11.70;99.90
10433;DHT22;5263;48.680;9.004;2022-10-10T00:12:57;11.80;99.90
10433;DHT22;5263;48.680;9.004;2022-10-10T00:15:22;11.80;99.90
10433;DHT22;5263;48.680;9.004;2022-10-10T00:17:48;12.00;99.90
10433;DHT22;5263;48.680;9.004;2022-10-10T00:20:15;11.90;99.90
10433;DHT22;5263;48.680;9.004;2022-10-10T00:22:41;11.70;99.90
10433;DHT22;5263;48.680;9.004;2022-10-10T00:25:08;11.60;99.90
10433;DHT22;5263;48.680;9.004;2022-10-10T00:27:35;11.60;99.90
10433;DHT22;5263;48.680;9.004;2022-10-10T00:30:01;11.70;99.90
10433;DHT22;5263;48.680;9.004;2022-10-10T00:32:27;11.80;99.90
10433;DHT22;5263;48.680;9.004;2022-10-10T00:34:53;11.70;99.90
10433;DHT22;5263;48.680;9.004;2022-10-10T00:37:18;11.70;99.90
10433;DHT22;5263;48.680;9.004;2022-10-10T00:39:44;11.80;99.90
10433;DHT22;5263;48.680;9.004;2022-10-10T00:42:14;11.70;99.90
10433;DHT22;5263;48.680;9.004;2022-10-10T00:44:42;11.80;99.90
10433;DHT22;5263;48.680;9.004;2022-10-10T00:47:08;11.70;99.90
10433;DHT22;5263;48.680;9.004;2022-10-10T00:49:36;11.60;99.90
10433;DHT22;5263;48.680;9.004;2022-10-10T00:52:05;11.60;99.90
10433;DHT22;5263;48.680;9.004;2022-10-10T00:54:32;11.70;99.90
10433;DHT22;5263;48.680;9.004;2022-10-10T00:57:07;11.80;99.90
10433;DHT22;5263;48.680;9.004;2022-10-10T00:59:33;11.70;99.90
10433;DHT22;5263;48.680;9.004;2022-10-10T01:02:01;11.80;99.90
10433;DHT22;5263;48.680;9.004;2022-10-10T01:04:36;11.90;99.90
10433;DHT22;5263;48.680;9.004;2022-10-10T01:07:05;11.70;99.90
10433;DHT22;5263;48.680;9.004;2022-10-10T01:09:33;11.80;99.90
10433;DHT22;5263;48.680;9.004;2022-10-10T01:18:08;11.80;99.90
10433;DHT22;5263;48.680;9.004;2022-10-10T01:24:11;11.70;99.90
10433;DHT22;5263;48.680;9.004;2022-10-10T01:26:41;11.80;99.90
10433;DHT22;5263;48.680;9.004;2022-10-10T01:29:33;11.80;99.90
10433;DHT22;5263;48.680;9.004;2022-10-10T01:32:21;11.60;99.90
10433;DHT22;5263;48.680;9.004;2022-10-10T01:42:52;11.50;99.90
10433;DHT22;5263;48.680;9.004;2022-10-10T01:45:19;11.60;99.90
10433;DHT22;5263;48.680;9.004;2022-10-10T01:47:45;11.50;99.90
10433;DHT22;5263;48.680;9.004;2022-10-10T01:50:14;11.50;99.90
10433;DHT22;5263;48.680;9.004;2022-10-10T02:01:14;11.40;99.90
10433;DHT22;5263;48.680;9.004;2022-10-10T02:03:44;11.30;99.90
10433;DHT22;5263;48.680;9.004;2022-10-10T02:06:20;11.50;99.90
10433;DHT22;5263;48.680;9.004;2022-10-10T02:08:53;11.40;99.90
10433;DHT22;5263;48.680;9.004;2022-10-10T02:11:22;11.40;99.90
10433;DHT22;5263;48.680;9.004;2022-10-10T02:13:55;11.50;99.90
10433;DHT22;5263;48.680;9.004;2022-10-10T02:16:28;11.50;99.90
10433;DHT22;5263;48.680;9.004;2022-10-10T02:18:55;11.20;99.90
10433;DHT22;5263;48.680;9.004;2022-10-10T02:21:23;11.30;99.90
10433;DHT22;5263;48.680;9.004;2022-10-10T02:23:50;11.40;99.90
10433;DHT22;5263;48.680;9.004;2022-10-10T02:26:18;11.20;99.90
10433;DHT22;5263;48.680;9.004;2022-10-10T02:28:56;11.20;99.90
10433;DHT22;5263;48.680;9.004;2022-10-10T02:31:40;11.20;99.90
10433;DHT22;5263;48.680;9.004;2022-10-10T02:34:12;11.20;99.90
10433;DHT22;5263;48.680;9.004;2022-10-10T02:36:39;11.40;99.90
10433;DHT22;5263;48.680;9.004;2022-10-10T02:39:07;11.30;99.90
10433;DHT22;5263;48.680;9.004;2022-10-10T02:41:35;11.20;99.90
10433;DHT22;5263;48.680;9.004;2022-10-10T02:44:01;11.20;99.90
10433;DHT22;5263;48.680;9.004;2022-10-10T02:46:27;11.30;99.90
10433;DHT22;5263;48.680;9.004;2022-10-10T02:48:52;11.20;99.90
10433;DHT22;5263;48.680;9.004;2022-10-10T02:51:18;11.10;99.90
10433;DHT22;5263;48.680;9.004;2022-10-10T02:53:44;10.90;99.90
10433;DHT22;5263;48.680;9.004;2022-10-10T02:56:10;11.00;99.90
10433;DHT22;5263;48.680;9.004;2022-10-10T02:58:36;11.00;99.90
10433;DHT22;5263;48.680;9.004;2022-10-10T03:01:02;11.00;99.90
10433;DHT22;5263;48.680;9.004;2022-10-10T03:03:28;11.10;99.90
10433;DHT22;5263;48.680;9.004;2022-10-10T03:05:53;11.10;99.90
10433;DHT22;5263;48.680;9.004;2022-10-10T03:08:19;11.20;99.90
10433;DHT22;5263;48.680;9.004;2022-10-10T03:10:59;11.30;99.90
10433;DHT22;5263;48.680;9.004;2022-10-10T03:13:25;11.50;99.90
10433;DHT22;5263;48.680;9.004;2022-10-10T03:15:51;11.50;99.90
10433;DHT22;5263;48.680;9.004;2022-10-10T03:18:17;11.30;99.90
10433;DHT22;5263;48.680;9.004;2022-10-10T03:21:01;11.40;99.90
10433;DHT22;5263;48.680;9.004;2022-10-10T03:23:27;11.40;99.90
10433;DHT22;5263;48.680;9.004;2022-10-10T03:25:53;11.60;99.90
10433;DHT22;5263;48.680;9.004;2022-10-10T03:28:19;11.50;99.90
10433;DHT22;5263;48.680;9.004;2022-10-10T03:30:45;11.70;99.90
10433;DHT22;5263;48.680;9.004;2022-10-10T03:33:10;11.50;99.90
10433;DHT22;5263;48.680;9.004;2022-10-10T03:35:36;11.70;99.90
10433;DHT22;5263;48.680;9.004;2022-10-10T03:38:02;11.80;99.90
10433;DHT22;5263;48.680;9.004;2022-10-10T03:40:28;11.80;99.90
10433;DHT22;5263;48.680;9.004;2022-10-10T03:42:55;11.70;99.90
10433;DHT22;5263;48.680;9.004;2022-10-10T03:45:20;11.80;99.90
10433;DHT22;5263;48.680;9.004;2022-10-10T03:47:46;11.70;99.90
10433;DHT22;5263;48.680;9.004;2022-10-10T03:50:12;11.70;99.90
10433;DHT22;5263;48.680;9.004;2022-10-10T03:52:37;11.70;99.90
10433;DHT22;5263;48.680;9.004;2022-10-10T03:55:03;11.80;99.90
10433;DHT22;5263;48.680;9.004;2022-10-10T03:57:29;11.80;99.90
10433;DHT22;5263;48.680;9.004;2022-10-10T03:59:55;11.90;99.90
10433;DHT22;5263;48.680;9.004;2022-10-10T04:02:20;11.90;99.90
10433;DHT22;5263;48.680;9.004;2022-10-10T04:04:46;12.00;99.90
10433;DHT22;5263;48.680;9.004;2022-10-10T04:07:11;12.00;99.90
10433;DHT22;5263;48.680;9.004;2022-10-10T04:09:37;12.00;99.90
10433;DHT22;5263;48.680;9.004;2022-10-10T04:12:03;12.00;99.90
10433;DHT22;5263;48.680;9.004;2022-10-10T04:14:28;12.00;99.90
10433;DHT22;5263;48.680;9.004;2022-10-10T04:16:54;11.80;99.90
10433;DHT22;5263;48.680;9.004;2022-10-10T04:19:20;11.80;99.90
10433;DHT22;5263;48.680;9.004;2022-10-10T04:21:45;11.70;99.90
10433;DHT22;5263;48.680;9.004;2022-10-10T04:24:11;11.70;99.90
10433;DHT22;5263;48.680;9.004;2022-10-10T04:26:36;11.70;99.90
10433;DHT22;5263;48.680;9.004;2022-10-10T04:29:03;11.50;99.90
10433;DHT22;5263;48.680;9.004;2022-10-10T04:31:28;11.60;99.90
10433;DHT22;5263;48.680;9.004;2022-10-10T04:33:54;11.60;99.90
10433;DHT22;5263;48.680;9.004;2022-10-10T04:36:20;11.60;99.90
10433;DHT22;5263;48.680;9.004;2022-10-10T04:38:45;11.70;99.90
10433;DHT22;5263;48.680;9.004;2022-10-10T04:41:11;11.50;99.90
10433;DHT22;5263;48.680;9.004;2022-10-10T04:43:36;11.70;99.90
10433;DHT22;5263;48.680;9.004;2022-10-10T04:46:02;11.70;99.90
10433;DHT22;5263;48.680;9.004;2022-10-10T04:48:28;11.40;99.90
10433;DHT22;5263;48.680;9.004;2022-10-10T04:50:56;11.30;99.90
10433;DHT22;5263;48.680;9.004;2022-10-10T04:53:23;11.10;99.90
10433;DHT22;5263;48.680;9.004;2022-10-10T04:55:49;11.10;99.90
10433;DHT22;5263;48.680;9.004;2022-10-10T04:58:15;11.20;99.90
10433;DHT22;5263;48.680;9.004;2022-10-10T05:00:41;11.30;99.90
10433;DHT22;5263;48.680;9.004;2022-10-10T05:03:07;11.30;99.90
10433;DHT22;5263;48.680;9.004;2022-10-10T05:05:34;11.50;99.90
10433;DHT22;5263;48.680;9.004;2022-10-10T05:07:59;11.70;99.90
10433;DHT22;5263;48.680;9.004;2022-10-10T05:10:25;11.90;99.90
10433;DHT22;5263;48.680;9.004;2022-10-10T05:12:51;12.00;99.90
10433;DHT22;5263;48.680;9.004;2022-10-10T05:15:17;11.90;99.90
10433;DHT22;5263;48.680;9.004;2022-10-10T05:17:44;12.00;99.90
10433;DHT22;5263;48.680;9.004;2022-10-10T05:20:10;12.10;99.90
10433;DHT22;5263;48.680;9.004;2022-10-10T05:22:35;12.00;99.90
10433;DHT22;5263;48.680;9.004;2022-10-10T05:25:01;11.80;99.90
10433;DHT22;5263;48.680;9.004;2022-10-10T05:27:27;11.70;99.90
10433;DHT22;5263;48.680;9.004;2022-10-10T05:29:53;11.80;99.90
10433;DHT22;5263;48.680;9.004;2022-10-10T05:32:20;11.60;99.90
10433;DHT22;5263;48.680;9.004;2022-10-10T05:34:46;11.80;99.90
10433;DHT22;5263;48.680;9.004;2022-10-10T05:37:12;11.70;99.90
10433;DHT22;5263;48.680;9.004;2022-10-10T05:39:38;11.70;99.90
10433;DHT22;5263;48.680;9.004;2022-10-10T05:42:03;11.60;99.90
10433;DHT22;5263;48.680;9.004;2022-10-10T05:44:29;11.70;99.90
10433;DHT22;5263;48.680;9.004;2022-10-10T05:46:55;11.70;99.90
10433;DHT22;5263;48.680;9.004;2022-10-10T05:49:21;11.70;99.90
10433;DHT22;5263;48.680;9.004;2022-10-10T05:51:47;11.80;99.90
10433;DHT22;5263;48.680;9.004;2022-10-10T05:54:12;11.80;99.90
10433;DHT22;5263;48.680;9.004;2022-10-10T05:56:38;11.80;99.90
10433;DHT22;5263;48.680;9.004;2022-10-10T05:59:04;11.90;99.90
10433;DHT22;5263;48.680;9.004;2022-10-10T06:01:30;11.90;99.90
10433;DHT22;5263;48.680;9.004;2022-10-10T06:03:55;11.80;99.90
10433;DHT22;5263;48.680;9.004;2022-10-10T06:06:23;11.80;99.90
10433;DHT22;5263;48.680;9.004;2022-10-10T06:08:49;11.80;99.90
10433;DHT22;5263;48.680;9.004;2022-10-10T06:11:14;12.00;99.90
10433;DHT22;5263;48.680;9.004;2022-10-10T06:13:42;12.10;99.90
10433;DHT22;5263;48.680;9.004;2022-10-10T06:16:08;12.10;99.90
10433;DHT22;5263;48.680;9.004;2022-10-10T06:18:33;12.10;99.90
10433;DHT22;5263;48.680;9.004;2022-10-10T06:21:04;12.20;99.90
10433;DHT22;5263;48.680;9.004;2022-10-10T06:23:30;12.30;99.90
10433;DHT22;5263;48.680;9.004;2022-10-10T06:25:56;12.40;99.90
10433;DHT22;5263;48.680;9.004;2022-10-10T06:28:21;12.50;99.90
10433;DHT22;5263;48.680;9.004;2022-10-10T06:30:47;12.50;99.90
10433;DHT22;5263;48.680;9.004;2022-10-10T06:33:13;12.60;99.90
10433;DHT22;5263;48.680;9.004;2022-10-10T06:35:45;12.70;99.90
10433;DHT22;5263;48.680;9.004;2022-10-10T06:38:12;12.80;99.90
10433;DHT22;5263;48.680;9.004;2022-10-10T06:40:38;12.50;99.90
10433;DHT22;5263;48.680;9.004;2022-10-10T06:43:05;12.60;99.90
10433;DHT22;5263;48.680;9.004;2022-10-10T06:45:37;12.60;99.90
10433;DHT22;5263;48.680;9.004;2022-10-10T06:48:03;12.60;99.90
10433;DHT22;5263;48.680;9.004;2022-10-10T06:50:28;12.80;99.90
10433;DHT22;5263;48.680;9.004;2022-10-10T06:52:54;12.60;99.90
10433;DHT22;5263;48.680;9.004;2022-10-10T06:55:20;12.70;99.90
10433;DHT22;5263;48.680;9.004;2022-10-10T06:57:45;12.90;99.90
10433;DHT22;5263;48.680;9.004;2022-10-10T07:00:11;12.80;99.90
10433;DHT22;5263;48.680;9.004;2022-10-10T07:02:37;12.90;99.90
10433;DHT22;5263;48.680;9.004;2022-10-10T07:05:06;12.90;99.90
10433;DHT22;5263;48.680;9.004;2022-10-10T07:07:33;13.10;99.90
10433;DHT22;5263;48.680;9.004;2022-10-10T07:09:59;13.30;99.90
10433;DHT22;5263;48.680;9.004;2022-10-10T07:12:24;13.30;99.90
10433;DHT22;5263;48.680;9.004;2022-10-10T07:14:50;13.30;99.90
10433;DHT22;5263;48.680;9.004;2022-10-10T07:17:16;13.10;99.90
10433;DHT22;5263;48.680;9.004;2022-10-10T07:19:41;13.30;99.90
10433;DHT22;5263;48.680;9.004;2022-10-10T07:22:07;13.50;99.90
10433;DHT22;5263;48.680;9.004;2022-10-10T07:24:32;13.40;99.90
10433;DHT22;5263;48.680;9.004;2022-10-10T07:26:58;13.30;99.90
10433;DHT22;5263;48.680;9.004;2022-10-10T07:29:23;13.20;99.90
10433;DHT22;5263;48.680;9.004;2022-10-10T07:31:49;13.50;99.90
10433;DHT22;5263;48.680;9.004;2022-10-10T07:34:15;13.60;99.90
10433;DHT22;5263;48.680;9.004;2022-10-10T07:36:40;13.60;99.90
10433;DHT22;5263;48.680;9.004;2022-10-10T07:39:06;13.60;99.90
10433;DHT22;5263;48.680;9.004;2022-10-10T07:41:32;13.90;99.90
10433;DHT22;5263;48.680;9.004;2022-10-10T07:43:57;13.70;99.90
10433;DHT22;5263;48.680;9.004;2022-10-10T07:46:23;14.00;99.90
10433;DHT22;5263;48.680;9.004;2022-10-10T07:48:49;14.20;99.90
10433;DHT22;5263;48.680;9.004;2022-10-10T07:51:15;14.10;99.90
10433;DHT22;5263;48.680;9.004;2022-10-10T07:53:41;14.20;99.90
10433;DHT22;5263;48.680;9.004;2022-10-10T07:56:08;14.50;99.90
10433;DHT22;5263;48.680;9.004;2022-10-10T07:58:35;14.40;99.90
10433;DHT22;5263;48.680;9.004;2022-10-10T08:01:11;14.30;99.90
10433;DHT22;5263;48.680;9.004;2022-10-10T08:03:37;14.40;99.90
10433;DHT22;5263;48.680;9.004;2022-10-10T08:06:06;14.50;99.90
10433;DHT22;5263;48.680;9.004;2022-10-10T08:08:32;14.40;99.90
10433;DHT22;5263;48.680;9.004;2022-10-10T08:10:58;14.20;99.90
10433;DHT22;5263;48.680;9.004;2022-10-10T08:13:25;14.40;99.90
10433;DHT22;5263;48.680;9.004;2022-10-10T08:15:51;14.40;99.90
10433;DHT22;5263;48.680;9.004;2022-10-10T08:18:17;14.70;99.90
10433;DHT22;5263;48.680;9.004;2022-10-10T08:20:43;15.00;99.90
10433;DHT22;5263;48.680;9.004;2022-10-10T08:23:08;15.20;99.90
10433;DHT22;5263;48.680;9.004;2022-10-10T08:25:34;15.40;99.90
10433;DHT22;5263;48.680;9.004;2022-10-10T08:28:00;15.70;99.90
10433;DHT22;5263;48.680;9.004;2022-10-10T08:30:25;15.90;99.90
10433;DHT22;5263;48.680;9.004;2022-10-10T08:32:51;16.00;99.90
10433;DHT22;5263;48.680;9.004;2022-10-10T08:35:16;15.70;99.90
10433;DHT22;5263;48.680;9.004;2022-10-10T08:37:42;15.90;99.90
10433;DHT22;5263;48.680;9.004;2022-10-10T08:40:13;15.90;99.90
10433;DHT22;5263;48.680;9.004;2022-10-10T08:42:44;16.10;99.90
10433;DHT22;5263;48.680;9.004;2022-10-10T08:45:16;16.10;99.90
10433;DHT22;5263;48.680;9.004;2022-10-10T08:47:45;16.30;99.90
10433;DHT22;5263;48.680;9.004;2022-10-10T08:50:20;16.50;99.90
10433;DHT22;5263;48.680;9.004;2022-10-10T08:53:11;16.90;99.90
10433;DHT22;5263;48.680;9.004;2022-10-10T08:55:39;17.30;99.90
10433;DHT22;5263;48.680;9.004;2022-10-10T09:00:47;17.20;99.90
10433;DHT22;5263;48.680;9.004;2022-10-10T09:03:42;17.20;99.90
10433;DHT22;5263;48.680;9.004;2022-10-10T09:20:30;17.10;99.90
10433;DHT22;5263;48.680;9.004;2022-10-10T09:23:29;16.90;99.90
10433;DHT22;5263;48.680;9.004;2022-10-10T09:28:39;17.20;99.90
10433;DHT22;5263;48.680;9.004;2022-10-10T09:31:30;17.20;99.90
10433;DHT22;5263;48.680;9.004;2022-10-10T09:34:05;17.50;99.90
10433;DHT22;5263;48.680;9.004;2022-10-10T09:36:35;17.40;99.90
10433;DHT22;5263;48.680;9.004;2022-10-10T09:41:54;18.40;99.90
10433;DHT22;5263;48.680;9.004;2022-10-10T09:44:22;18.60;99.90
10433;DHT22;5263;48.680;9.004;2022-10-10T09:46:48;18.40;99.90
10433;DHT22;5263;48.680;9.004;2022-10-10T09:49:15;18.20;99.90
10433;DHT22;5263;48.680;9.004;2022-10-10T09:51:43;18.10;99.90
10433;DHT22;5263;48.680;9.004;2022-10-10T09:54:10;18.00;99.90
10433;DHT22;5263;48.680;9.004;2022-10-10T09:56:59;18.00;99.90
10433;DHT22;5263;48.680;9.004;2022-10-10T09:59:54;18.20;99.90
10433;DHT22;5263;48.680;9.004;2022-10-10T10:02:25;18.70;99.90
10433;DHT22;5263;48.680;9.004;2022-10-10T10:04:52;18.80;99.90
10433;DHT22;5263;48.680;9.004;2022-10-10T10:07:33;18.70;99.90
10433;DHT22;5263;48.680;9.004;2022-10-10T10:10:18;18.60;99.90
10433;DHT22;5263;48.680;9.004;2022-10-10T10:12:45;18.50;99.90
10433;DHT22;5263;48.680;9.004;2022-10-10T10:15:25;18.50;99.90
10433;DHT22;5263;48.680;9.004;2022-10-10T10:20:44;18.50;99.90
10433;DHT22;5263;48.680;9.004;2022-10-10T10:23:39;18.30;99.90
10433;DHT22;5263;48.680;9.004;2022-10-10T10:28:40;18.80;99.90
10433;DHT22;5263;48.680;9.004;2022-10-10T10:31:21;18.90;99.90
10433;DHT22;5263;48.680;9.004;2022-10-10T10:36:53;19.10;99.90
10433;DHT22;5263;48.680;9.004;2022-10-10T10:50:55;23.40;99.90
10433;DHT22;5263;48.680;9.004;2022-10-10T11:04:53;26.80;96.80
10433;DHT22;5263;48.680;9.004;2022-10-10T11:07:22;27.20;95.30
10433;DHT22;5263;48.680;9.004;2022-10-10T11:15:20;27.10;92.80
10433;DHT22;5263;48.680;9.004;2022-10-10T11:17:59;27.50;91.30
10433;DHT22;5263;48.680;9.004;2022-10-10T11:20:42;28.10;92.20
10433;DHT22;5263;48.680;9.004;2022-10-10T11:23:16;29.50;87.80
10433;DHT22;5263;48.680;9.004;2022-10-10T11:26:05;29.40;85.20
10433;DHT22;5263;48.680;9.004;2022-10-10T11:28:39;28.30;87.50
10433;DHT22;5263;48.680;9.004;2022-10-10T11:33:53;30.00;81.40
10433;DHT22;5263;48.680;9.004;2022-10-10T11:36:24;30.40;78.10
10433;DHT22;5263;48.680;9.004;2022-10-10T11:38:57;30.20;77.00
10433;DHT22;5263;48.680;9.004;2022-10-10T11:41:37;30.30;73.50
10433;DHT22;5263;48.680;9.004;2022-10-10T11:51:40;32.00;69.50
10433;DHT22;5263;48.680;9.004;2022-10-10T11:54:18;33.60;64.40
10433;DHT22;5263;48.680;9.004;2022-10-10T11:56:45;34.20;59.50
10433;DHT22;5263;48.680;9.004;2022-10-10T12:02:32;33.80;58.60
10433;DHT22;5263;48.680;9.004;2022-10-10T12:04:59;34.40;57.50
10433;DHT22;5263;48.680;9.004;2022-10-10T12:07:30;33.60;58.10
10433;DHT22;5263;48.680;9.004;2022-10-10T12:10:08;33.30;57.00
10433;DHT22;5263;48.680;9.004;2022-10-10T12:12:41;32.50;58.20
10433;DHT22;5263;48.680;9.004;2022-10-10T12:15:09;33.10;56.70
10433;DHT22;5263;48.680;9.004;2022-10-10T12:17:41;33.10;57.30
10433;DHT22;5263;48.680;9.004;2022-10-10T12:22:35;33.60;57.10
10433;DHT22;5263;48.680;9.004;2022-10-10T12:25:19;33.10;56.90
10433;DHT22;5263;48.680;9.004;2022-10-10T12:30:30;33.60;56.10
10433;DHT22;5263;48.680;9.004;2022-10-10T12:32:56;33.90;55.10
10433;DHT22;5263;48.680;9.004;2022-10-10T12:35:29;33.80;54.60
10433;DHT22;5263;48.680;9.004;2022-10-10T12:40:31;34.70;52.90
10433;DHT22;5263;48.680;9.004;2022-10-10T12:43:21;34.80;54.30
10433;DHT22;5263;48.680;9.004;2022-10-10T12:45:55;35.50;52.00
10433;DHT22;5263;48.680;9.004;2022-10-10T12:48:22;36.20;51.70
10433;DHT22;5263;48.680;9.004;2022-10-10T12:50:59;35.10;47.10
10433;DHT22;5263;48.680;9.004;2022-10-10T12:53:28;32.00;52.10
10433;DHT22;5263;48.680;9.004;2022-10-10T12:56:00;30.90;56.00
10433;DHT22;5263;48.680;9.004;2022-10-10T12:58:32;30.60;58.60
10433;DHT22;5263;48.680;9.004;2022-10-10T13:01:04;31.00;56.30
10433;DHT22;5263;48.680;9.004;2022-10-10T13:03:37;30.70;55.90
10433;DHT22;5263;48.680;9.004;2022-10-10T13:08:42;29.20;57.40
10433;DHT22;5263;48.680;9.004;2022-10-10T13:11:10;29.60;59.60
10433;DHT22;5263;48.680;9.004;2022-10-10T13:13:50;29.20;60.00
10433;DHT22;5263;48.680;9.004;2022-10-10T13:16:22;29.10;57.70
10433;DHT22;5263;48.680;9.004;2022-10-10T13:18:50;29.30;53.00
10433;DHT22;5263;48.680;9.004;2022-10-10T13:21:25;30.00;50.30
10433;DHT22;5263;48.680;9.004;2022-10-10T13:23:53;29.80;49.80
10433;DHT22;5263;48.680;9.004;2022-10-10T13:26:22;28.10;53.60
10433;DHT22;5263;48.680;9.004;2022-10-10T13:28:50;27.40;52.90
10433;DHT22;5263;48.680;9.004;2022-10-10T13:31:17;26.70;55.20
10433;DHT22;5263;48.680;9.004;2022-10-10T13:33:44;26.40;55.10
10433;DHT22;5263;48.680;9.004;2022-10-10T13:36:19;26.10;56.40
10433;DHT22;5263;48.680;9.004;2022-10-10T13:38:46;26.10;57.40
10433;DHT22;5263;48.680;9.004;2022-10-10T13:41:12;25.30;57.60
10433;DHT22;5263;48.680;9.004;2022-10-10T13:43:39;24.20;59.00
10433;DHT22;5263;48.680;9.004;2022-10-10T13:46:05;23.10;62.70
10433;DHT22;5263;48.680;9.004;2022-10-10T13:51:02;22.70;65.60
10433;DHT22;5263;48.680;9.004;2022-10-10T14:06:35;23.30;65.60
10433;DHT22;5263;48.680;9.004;2022-10-10T14:09:12;23.40;66.20
10433;DHT22;5263;48.680;9.004;2022-10-10T14:11:41;23.30;66.80
10433;DHT22;5263;48.680;9.004;2022-10-10T14:14:15;23.00;68.40
10433;DHT22;5263;48.680;9.004;2022-10-10T14:16:41;23.30;67.10
10433;DHT22;5263;48.680;9.004;2022-10-10T14:19:16;23.10;67.60
10433;DHT22;5263;48.680;9.004;2022-10-10T14:21:42;23.20;68.30
10433;DHT22;5263;48.680;9.004;2022-10-10T14:24:08;23.10;70.10
10433;DHT22;5263;48.680;9.004;2022-10-10T14:26:34;23.20;70.30
10433;DHT22;5263;48.680;9.004;2022-10-10T14:29:00;22.90;72.10
10433;DHT22;5263;48.680;9.004;2022-10-10T14:31:26;23.00;72.40
10433;DHT22;5263;48.680;9.004;2022-10-10T14:33:53;23.00;71.90
10433;DHT22;5263;48.680;9.004;2022-10-10T14:36:19;23.00;72.90
10433;DHT22;5263;48.680;9.004;2022-10-10T14:38:45;22.90;75.30
10433;DHT22;5263;48.680;9.004;2022-10-10T14:41:11;22.20;80.60
10433;DHT22;5263;48.680;9.004;2022-10-10T14:43:39;22.30;82.90
10433;DHT22;5263;48.680;9.004;2022-10-10T14:46:08;21.70;87.70
10433;DHT22;5263;48.680;9.004;2022-10-10T14:48:39;21.80;90.30
10433;DHT22;5263;48.680;9.004;2022-10-10T14:51:07;21.80;91.80
10433;DHT22;5263;48.680;9.004;2022-10-10T14:53:33;21.80;92.90
10433;DHT22;5263;48.680;9.004;2022-10-10T14:55:59;21.90;93.00
10433;DHT22;5263;48.680;9.004;2022-10-10T14:58:24;22.10;93.80
10433;DHT22;5263;48.680;9.004;2022-10-10T15:00:51;22.20;93.90
10433;DHT22;5263;48.680;9.004;2022-10-10T15:03:17;22.20;94.20
10433;DHT22;5263;48.680;9.004;2022-10-10T15:05:43;22.40;94.70
10433;DHT22;5263;48.680;9.004;2022-10-10T15:08:12;22.20;95.20
10433;DHT22;5263;48.680;9.004;2022-10-10T15:10:38;22.00;96.90
10433;DHT22;5263;48.680;9.004;2022-10-10T15:13:04;22.40;96.20
10433;DHT22;5263;48.680;9.004;2022-10-10T15:15:30;22.10;97.20
10433;DHT22;5263;48.680;9.004;2022-10-10T15:17:57;22.20;97.70
10433;DHT22;5263;48.680;9.004;2022-10-10T15:20:23;22.10;98.20
10433;DHT22;5263;48.680;9.004;2022-10-10T15:23:02;22.20;98.00
10433;DHT22;5263;48.680;9.004;2022-10-10T15:25:28;22.30;97.40
10433;DHT22;5263;48.680;9.004;2022-10-10T15:27:55;21.80;95.70
10433;DHT22;5263;48.680;9.004;2022-10-10T15:30:21;21.60;97.10
10433;DHT22;5263;48.680;9.004;2022-10-10T15:32:47;21.50;97.70
10433;DHT22;5263;48.680;9.004;2022-10-10T15:35:17;20.80;96.90
10433;DHT22;5263;48.680;9.004;2022-10-10T15:37:45;20.90;97.60
10433;DHT22;5263;48.680;9.004;2022-10-10T15:40:12;20.80;98.40
10433;DHT22;5263;48.680;9.004;2022-10-10T15:42:38;20.80;99.70
10433;DHT22;5263;48.680;9.004;2022-10-10T15:45:04;20.70;98.60
10433;DHT22;5263;48.680;9.004;2022-10-10T15:47:29;20.60;99.60
10433;DHT22;5263;48.680;9.004;2022-10-10T15:49:55;20.40;99.90
10433;DHT22;5263;48.680;9.004;2022-10-10T15:52:21;20.60;99.90
10433;DHT22;5263;48.680;9.004;2022-10-10T15:54:51;20.80;99.90
10433;DHT22;5263;48.680;9.004;2022-10-10T15:57:18;20.70;99.90
10433;DHT22;5263;48.680;9.004;2022-10-10T15:59:43;20.70;99.90
10433;DHT22;5263;48.680;9.004;2022-10-10T16:02:10;20.60;99.90
10433;DHT22;5263;48.680;9.004;2022-10-10T16:04:36;20.60;99.90
10433;DHT22;5263;48.680;9.004;2022-10-10T16:07:03;20.60;99.90
10433;DHT22;5263;48.680;9.004;2022-10-10T16:09:28;20.40;99.90
10433;DHT22;5263;48.680;9.004;2022-10-10T16:11:54;20.00;99.90
10433;DHT22;5263;48.680;9.004;2022-10-10T16:14:19;20.10;99.90
10433;DHT22;5263;48.680;9.004;2022-10-10T16:16:45;20.00;99.90
10433;DHT22;5263;48.680;9.004;2022-10-10T16:19:11;19.90;99.90
10433;DHT22;5263;48.680;9.004;2022-10-10T16:21:36;19.80;99.90
10433;DHT22;5263;48.680;9.004;2022-10-10T16:24:02;19.70;99.90
10433;DHT22;5263;48.680;9.004;2022-10-10T16:26:29;19.70;99.90
10433;DHT22;5263;48.680;9.004;2022-10-10T16:28:58;19.70;99.90
10433;DHT22;5263;48.680;9.004;2022-10-10T16:31:24;19.70;99.90
10433;DHT22;5263;48.680;9.004;2022-10-10T16:33:50;19.70;99.90
10433;DHT22;5263;48.680;9.004;2022-10-10T16:36:18;19.60;99.90
10433;DHT22;5263;48.680;9.004;2022-10-10T16:38:45;19.50;99.90
10433;DHT22;5263;48.680;9.004;2022-10-10T16:41:13;19.40;99.90
10433;DHT22;5263;48.680;9.004;2022-10-10T16:43:40;19.20;99.90
10433;DHT22;5263;48.680;9.004;2022-10-10T16:46:08;19.00;99.90
10433;DHT22;5263;48.680;9.004;2022-10-10T16:48:36;19.00;99.90
10433;DHT22;5263;48.680;9.004;2022-10-10T16:51:03;18.90;99.90
10433;DHT22;5263;48.680;9.004;2022-10-10T16:53:30;18.80;99.90
10433;DHT22;5263;48.680;9.004;2022-10-10T16:55:57;18.80;99.90
10433;DHT22;5263;48.680;9.004;2022-10-10T16:58:24;18.80;99.90
10433;DHT22;5263;48.680;9.004;2022-10-10T17:00:49;18.80;99.90
10433;DHT22;5263;48.680;9.004;2022-10-10T17:03:15;18.80;99.90
10433;DHT22;5263;48.680;9.004;2022-10-10T17:05:43;18.70;99.90
10433;DHT22;5263;48.680;9.004;2022-10-10T17:08:10;18.70;99.90
10433;DHT22;5263;48.680;9.004;2022-10-10T17:10:35;18.60;99.90
10433;DHT22;5263;48.680;9.004;2022-10-10T17:13:01;18.40;99.90
10433;DHT22;5263;48.680;9.004;2022-10-10T17:15:26;18.10;99.90
10433;DHT22;5263;48.680;9.004;2022-10-10T17:17:52;17.90;99.90
10433;DHT22;5263;48.680;9.004;2022-10-10T17:20:18;17.90;99.90
10433;DHT22;5263;48.680;9.004;2022-10-10T17:22:43;17.90;99.90
10433;DHT22;5263;48.680;9.004;2022-10-10T17:25:09;17.90;99.90
10433;DHT22;5263;48.680;9.004;2022-10-10T17:27:36;17.90;99.90
10433;DHT22;5263;48.680;9.004;2022-10-10T17:30:04;18.00;99.90
10433;DHT22;5263;48.680;9.004;2022-10-10T17:32:30;17.90;99.90
10433;DHT22;5263;48.680;9.004;2022-10-10T17:34:56;17.90;99.90
10433;DHT22;5263;48.680;9.004;2022-10-10T17:37:23;17.90;99.90
10433;DHT22;5263;48.680;9.004;2022-10-10T17:39:49;17.80;99.90
10433;DHT22;5263;48.680;9.004;2022-10-10T17:42:14;17.70;99.90
10433;DHT22;5263;48.680;9.004;2022-10-10T17:44:40;17.80;99.90
10433;DHT22;5263;48.680;9.004;2022-10-10T17:47:08;17.70;99.90
10433;DHT22;5263;48.680;9.004;2022-10-10T17:49:37;17.40;99.90
10433;DHT22;5263;48.680;9.004;2022-10-10T17:52:05;17.40;99.90
10433;DHT22;5263;48.680;9.004;2022-10-10T17:54:31;17.50;99.90
10433;DHT22;5263;48.680;9.004;2022-10-10T17:56:57;17.60;99.90